Time;durP1;ratioP1;P1;durP2;ratioP2;P2;SDS_P1;SDS_P2;PMS_P1;PMS_P2;Temp;Humidity;BMP_temperature;BMP_pressure;BME280_temperature;BME280_humidity;BME280_pressure;Samples;Min_cycle;Max_cycle;Signal;HPM_P1;HPM_P2
2023/09/07 00:00:42;;;;;;;14.25;10.98;;;20.10;99.90;;;;;;4941499;29;20036;-84
2023/09/07 00:03:08;;;;;;;12.82;11.00;;;20.10;99.90;;;;;;4944417;29;20470;-87
2023/09/07 00:05:33;;;;;;;14.30;10.57;;;20.10;99.90;;;;;;4952726;29;20031;-87
2023/09/07 00:07:59;;;;;;;16.45;12.10;;;20.10;99.90;;;;;;4955227;28;20102;-86
2023/09/07 00:10:25;;;;;;;18.50;13.02;;;20.10;99.90;;;;;;4951680;29;20031;-87
2023/09/07 00:12:51;;;;;;;20.55;13.73;;;20.10;99.90;;;;;;4952104;29;20370;-87
2023/09/07 00:15:19;;;;;;;22.98;16.05;;;20.10;99.90;;;;;;4944532;29;20027;-87
2023/09/07 00:17:45;;;;;;;33.05;18.33;;;20.10;99.90;;;;;;4937089;29;20051;-85
2023/09/07 00:20:11;;;;;;;29.17;18.73;;;20.10;99.90;;;;;;4947803;29;20050;-86
2023/09/07 00:22:37;;;;;;;24.40;16.02;;;20.10;99.90;;;;;;4951643;29;20114;-87
2023/09/07 00:25:04;;;;;;;30.60;15.75;;;20.10;99.90;;;;;;4952311;28;20038;-86
2023/09/07 00:27:30;;;;;;;24.42;16.45;;;20.10;99.90;;;;;;4931918;29;20039;-87
2023/09/07 00:29:55;;;;;;;26.20;15.52;;;20.10;99.90;;;;;;4946165;29;20111;-86
2023/09/07 00:32:21;;;;;;;25.17;15.85;;;20.10;99.90;;;;;;4954848;28;20117;-86
2023/09/07 00:34:47;;;;;;;24.17;15.55;;;20.10;99.90;;;;;;4949768;29;20126;-86
2023/09/07 00:37:12;;;;;;;27.58;15.95;;;20.10;99.90;;;;;;4950178;29;20071;-86
2023/09/07 00:39:38;;;;;;;23.38;14.63;;;20.10;99.90;;;;;;4951937;29;20027;-86
2023/09/07 00:42:04;;;;;;;19.05;13.15;;;20.00;99.90;;;;;;4959174;28;20889;-86
2023/09/07 00:44:30;;;;;;;30.20;15.88;;;20.00;99.90;;;;;;4960962;28;20035;-88
2023/09/07 00:46:56;;;;;;;31.77;16.70;;;19.90;99.90;;;;;;4947672;28;20705;-87
2023/09/07 00:49:23;;;;;;;27.00;14.75;;;19.90;99.90;;;;;;4930206;29;20031;-87
2023/09/07 00:51:49;;;;;;;38.35;19.02;;;19.80;99.90;;;;;;4949150;29;20039;-87
2023/09/07 00:54:14;;;;;;;52.20;22.65;;;19.70;99.90;;;;;;4949372;29;20051;-87
2023/09/07 00:56:41;;;;;;;45.65;21.05;;;19.60;99.90;;;;;;4949635;29;20526;-86
2023/09/07 00:59:08;;;;;;;35.42;19.02;;;19.60;99.90;;;;;;4949922;29;20038;-86
2023/09/07 01:01:35;;;;;;;39.10;18.77;;;19.60;99.90;;;;;;4951382;28;20042;-86
2023/09/07 01:04:01;;;;;;;26.40;14.88;;;19.60;99.90;;;;;;4950099;29;20162;-86
2023/09/07 01:06:39;;;;;;;18.15;13.88;;;19.50;99.90;;;;;;4945043;29;20028;-87
2023/09/07 01:09:12;;;;;;;15.25;12.80;;;19.50;99.90;;;;;;4945878;29;20848;-86
2023/09/07 01:11:39;;;;;;;16.58;12.73;;;19.50;99.90;;;;;;4949006;29;20035;-87
2023/09/07 01:14:04;;;;;;;17.35;13.27;;;19.50;99.90;;;;;;4941865;29;20557;-86
2023/09/07 01:16:33;;;;;;;15.88;12.02;;;19.50;99.90;;;;;;4937259;29;20023;-87
2023/09/07 01:19:00;;;;;;;12.82;11.40;;;19.40;99.90;;;;;;4945004;28;20070;-87
2023/09/07 01:21:27;;;;;;;13.50;11.90;;;19.40;99.90;;;;;;4936845;28;20409;-87
2023/09/07 01:23:54;;;;;;;13.80;11.85;;;19.40;99.90;;;;;;4951559;29;20118;-86
2023/09/07 01:26:20;;;;;;;14.48;11.30;;;19.40;99.90;;;;;;4948827;29;20086;-86
2023/09/07 01:28:46;;;;;;;14.90;11.25;;;19.40;99.90;;;;;;4947583;28;20122;-86
2023/09/07 01:31:12;;;;;;;12.30;10.48;;;19.40;99.90;;;;;;4945672;29;20031;-87
2023/09/07 01:33:37;;;;;;;15.88;11.55;;;19.40;99.90;;;;;;4941798;29;20162;-87
2023/09/07 01:36:03;;;;;;;15.38;10.70;;;19.40;99.90;;;;;;4945551;29;20086;-87
2023/09/07 01:38:29;;;;;;;13.73;10.68;;;19.40;99.90;;;;;;4948813;29;20550;-88
2023/09/07 01:40:55;;;;;;;14.63;10.63;;;19.40;99.90;;;;;;4948257;29;20038;-87
2023/09/07 01:43:20;;;;;;;16.77;10.88;;;19.40;99.90;;;;;;4949987;29;20034;-86
2023/09/07 01:45:46;;;;;;;14.55;11.60;;;19.40;99.90;;;;;;4949667;29;20042;-87
2023/09/07 01:48:13;;;;;;;14.57;12.20;;;19.40;99.90;;;;;;4946223;29;20031;-86
2023/09/07 01:50:39;;;;;;;14.52;11.73;;;19.40;99.90;;;;;;4946050;29;20766;-87
2023/09/07 01:53:04;;;;;;;15.23;11.68;;;19.30;99.90;;;;;;4944326;29;20039;-87
2023/09/07 01:55:33;;;;;;;16.45;10.95;;;19.30;99.90;;;;;;4944959;29;20101;-87
2023/09/07 01:57:59;;;;;;;12.73;10.13;;;19.20;99.90;;;;;;4943511;28;20033;-87
2023/09/07 02:00:25;;;;;;;13.38;9.93;;;19.20;99.90;;;;;;4944882;28;20115;-85
2023/09/07 02:02:50;;;;;;;13.27;10.18;;;19.20;99.90;;;;;;4944789;29;20477;-86
2023/09/07 02:05:16;;;;;;;12.98;10.20;;;19.20;99.90;;;;;;4945436;29;20054;-86
2023/09/07 02:07:42;;;;;;;15.15;10.45;;;19.20;99.90;;;;;;4945945;29;20047;-85
2023/09/07 02:10:08;;;;;;;14.32;11.75;;;19.10;99.90;;;;;;4945976;29;20039;-86
2023/09/07 02:12:34;;;;;;;12.40;11.00;;;19.10;99.90;;;;;;4948687;28;20039;-86
2023/09/07 02:15:02;;;;;;;13.82;11.30;;;19.20;99.90;;;;;;4947509;28;20050;-86
2023/09/07 02:17:28;;;;;;;12.68;11.00;;;19.20;99.90;;;;;;4938450;29;20083;-86
2023/09/07 02:19:54;;;;;;;18.10;13.32;;;19.20;99.90;;;;;;4947380;29;20157;-86
2023/09/07 02:22:20;;;;;;;17.45;13.20;;;19.20;99.90;;;;;;4949704;29;20043;-86
2023/09/07 02:24:46;;;;;;;14.35;12.82;;;19.20;99.90;;;;;;4950843;29;20047;-86
2023/09/07 02:27:12;;;;;;;15.05;12.65;;;19.20;99.90;;;;;;4952560;29;20031;-87
2023/09/07 02:29:38;;;;;;;16.25;12.90;;;19.20;99.90;;;;;;4959518;28;20125;-86
2023/09/07 02:32:04;;;;;;;17.25;13.63;;;19.20;99.90;;;;;;4949890;29;20109;-85
2023/09/07 02:34:31;;;;;;;18.13;14.35;;;19.20;99.90;;;;;;4949241;28;20040;-86
2023/09/07 02:36:56;;;;;;;19.33;15.35;;;19.20;99.90;;;;;;4947729;28;20046;-85
2023/09/07 02:39:26;;;;;;;14.20;11.02;;;19.20;99.90;;;;;;4951420;29;20039;-86
2023/09/07 02:41:52;;;;;;;14.32;10.50;;;19.10;99.90;;;;;;4951171;29;20070;-88
2023/09/07 02:44:18;;;;;;;12.10;10.60;;;19.00;99.90;;;;;;4952942;28;20035;-85
2023/09/07 02:46:43;;;;;;;14.02;11.50;;;19.00;99.90;;;;;;4951330;29;20030;-86
2023/09/07 02:49:09;;;;;;;12.50;11.20;;;18.90;99.90;;;;;;4944142;28;20106;-87
2023/09/07 02:51:35;;;;;;;12.77;10.60;;;18.90;99.90;;;;;;4943416;28;20087;-85
2023/09/07 02:54:02;;;;;;;13.13;10.40;;;18.80;99.90;;;;;;4950872;29;20460;-86
2023/09/07 02:56:28;;;;;;;9.75;8.70;;;18.80;99.90;;;;;;4950777;29;20408;-86
2023/09/07 02:58:53;;;;;;;11.02;9.75;;;18.70;99.90;;;;;;4949102;29;20035;-88
2023/09/07 03:01:20;;;;;;;13.73;11.32;;;18.70;99.90;;;;;;4949282;29;20042;-85
2023/09/07 03:03:46;;;;;;;15.98;12.10;;;18.60;99.90;;;;;;4950257;29;20081;-87
2023/09/07 03:06:14;;;;;;;14.93;11.63;;;18.60;99.90;;;;;;4948947;29;20082;-85
2023/09/07 03:08:40;;;;;;;17.02;12.55;;;18.60;99.90;;;;;;4948276;29;20511;-86
2023/09/07 03:11:07;;;;;;;18.52;13.07;;;18.60;99.90;;;;;;4949247;29;20082;-86
2023/09/07 03:13:32;;;;;;;16.25;12.00;;;18.50;99.90;;;;;;4949793;28;20039;-86
2023/09/07 03:15:59;;;;;;;18.55;13.05;;;18.50;99.90;;;;;;4943764;29;20058;-86
2023/09/07 03:18:25;;;;;;;17.42;12.73;;;18.40;99.90;;;;;;4945422;29;20404;-86
2023/09/07 03:20:53;;;;;;;17.52;13.52;;;18.40;99.90;;;;;;4940534;29;20047;-87
2023/09/07 03:23:19;;;;;;;19.73;13.48;;;18.40;99.90;;;;;;4947791;29;20053;-86
2023/09/07 03:25:44;;;;;;;18.83;13.82;;;18.30;99.90;;;;;;4949284;28;20042;-87
2023/09/07 03:28:10;;;;;;;14.70;13.10;;;18.40;99.90;;;;;;4946159;29;20035;-87
2023/09/07 03:30:35;;;;;;;12.57;11.02;;;18.30;99.90;;;;;;4931547;29;20036;-87
2023/09/07 03:33:03;;;;;;;13.57;12.13;;;18.30;99.90;;;;;;4937400;29;20050;-86
2023/09/07 03:35:28;;;;;;;11.88;10.70;;;18.20;99.90;;;;;;4943971;29;20035;-87
2023/09/07 03:37:54;;;;;;;13.88;12.48;;;18.20;99.90;;;;;;4939855;29;20035;-88
2023/09/07 03:40:20;;;;;;;14.15;12.65;;;18.20;99.90;;;;;;4946755;29;20118;-86
2023/09/07 03:42:46;;;;;;;13.73;12.40;;;18.20;99.90;;;;;;4947278;28;20091;-88
2023/09/07 03:45:12;;;;;;;15.77;14.07;;;18.20;99.90;;;;;;4948507;29;20039;-87
2023/09/07 03:47:38;;;;;;;22.33;16.33;;;18.20;99.90;;;;;;4949913;29;20039;-86
2023/09/07 03:50:04;;;;;;;21.38;14.35;;;18.20;99.90;;;;;;4949077;28;20042;-85
2023/09/07 03:52:30;;;;;;;18.42;12.52;;;18.20;99.90;;;;;;4945692;29;20039;-86
2023/09/07 03:54:56;;;;;;;10.95;9.85;;;18.10;99.90;;;;;;4949444;29;20046;-87
2023/09/07 03:57:23;;;;;;;11.88;10.68;;;18.10;99.90;;;;;;4945186;28;20036;-86
2023/09/07 03:59:48;;;;;;;12.82;11.50;;;18.00;99.90;;;;;;4947227;29;20031;-87
2023/09/07 04:02:14;;;;;;;16.08;14.43;;;18.00;99.90;;;;;;4949589;29;20078;-87
2023/09/07 04:04:40;;;;;;;16.55;14.48;;;18.00;99.90;;;;;;4948710;28;20085;-85
2023/09/07 04:07:06;;;;;;;19.38;15.65;;;18.00;99.90;;;;;;4945659;28;20035;-88
2023/09/07 04:09:32;;;;;;;21.63;18.05;;;18.00;99.90;;;;;;4949615;29;20042;-86
2023/09/07 04:11:57;;;;;;;20.02;16.15;;;18.00;99.90;;;;;;4931128;29;20032;-86
2023/09/07 04:14:23;;;;;;;24.40;18.95;;;18.00;99.90;;;;;;4948807;29;20051;-86
2023/09/07 04:16:50;;;;;;;25.85;18.52;;;18.00;99.90;;;;;;4947807;29;20067;-87
2023/09/07 04:19:16;;;;;;;21.33;18.35;;;18.00;99.90;;;;;;4948444;28;20031;-86
2023/09/07 04:21:41;;;;;;;20.35;17.27;;;18.00;99.90;;;;;;4945367;29;20110;-86
2023/09/07 04:24:07;;;;;;;22.02;15.38;;;17.90;99.90;;;;;;4948511;29;20042;-87
2023/09/07 04:26:33;;;;;;;12.75;11.32;;;17.90;99.90;;;;;;4947720;29;20053;-85
2023/09/07 04:28:59;;;;;;;11.23;10.02;;;17.80;99.90;;;;;;4949476;29;20405;-87
2023/09/07 04:31:27;;;;;;;13.38;11.70;;;17.70;99.90;;;;;;4947013;29;20050;-85
2023/09/07 04:33:53;;;;;;;16.88;13.63;;;17.70;99.90;;;;;;4943269;29;20046;-87
2023/09/07 04:36:18;;;;;;;21.67;14.18;;;17.70;99.90;;;;;;4942693;28;20043;-86
2023/09/07 04:38:44;;;;;;;19.00;14.18;;;17.70;99.90;;;;;;4945630;29;20035;-87
2023/09/07 04:41:11;;;;;;;16.63;13.73;;;17.60;99.90;;;;;;4946743;29;20028;-85
2023/09/07 04:43:40;;;;;;;15.98;13.63;;;17.60;99.90;;;;;;4954204;28;20039;-84
2023/09/07 04:46:06;;;;;;;15.90;14.10;;;17.50;99.90;;;;;;4962556;28;20210;-84
2023/09/07 04:48:32;;;;;;;15.57;13.98;;;17.50;99.90;;;;;;4956696;28;20035;-88
2023/09/07 04:50:59;;;;;;;14.48;13.00;;;17.50;99.90;;;;;;4935735;29;20485;-87
2023/09/07 04:53:25;;;;;;;16.17;14.45;;;17.50;99.90;;;;;;4942956;29;20043;-88
2023/09/07 04:55:50;;;;;;;17.08;14.65;;;17.50;99.90;;;;;;4947255;29;20469;-88
2023/09/07 04:58:16;;;;;;;17.08;15.23;;;17.40;99.90;;;;;;4943352;29;20054;-88
2023/09/07 05:00:41;;;;;;;17.42;15.63;;;17.40;99.90;;;;;;4948032;29;20481;-88
2023/09/07 05:03:07;;;;;;;20.25;18.13;;;17.40;99.90;;;;;;4945015;29;20062;-86
2023/09/07 05:05:32;;;;;;;17.10;15.20;;;17.40;99.90;;;;;;4945987;28;20082;-88
2023/09/07 05:07:58;;;;;;;21.25;17.85;;;17.40;99.90;;;;;;4946717;29;20054;-86
2023/09/07 05:10:24;;;;;;;19.95;16.83;;;17.40;99.90;;;;;;4945622;29;20049;-87
2023/09/07 05:12:49;;;;;;;19.98;14.65;;;17.30;99.90;;;;;;4944519;29;20039;-87
2023/09/07 05:15:15;;;;;;;19.05;15.30;;;17.30;99.90;;;;;;4944960;29;20098;-86
2023/09/07 05:17:40;;;;;;;20.55;15.52;;;17.30;99.90;;;;;;4945757;29;20031;-85
2023/09/07 05:20:07;;;;;;;17.90;16.00;;;17.30;99.90;;;;;;4945969;29;20462;-87
2023/09/07 05:22:36;;;;;;;16.95;15.35;;;17.30;99.90;;;;;;4944556;29;20481;-87
2023/09/07 05:25:02;;;;;;;17.05;15.25;;;17.30;99.90;;;;;;4943515;28;20031;-86
2023/09/07 05:27:27;;;;;;;16.33;14.63;;;17.30;99.90;;;;;;4944121;28;20042;-86
2023/09/07 05:29:53;;;;;;;13.57;12.27;;;17.30;99.90;;;;;;4932597;29;20124;-86
2023/09/07 05:32:18;;;;;;;13.77;12.48;;;17.30;99.90;;;;;;4944827;29;20074;-86
2023/09/07 05:34:44;;;;;;;12.85;11.55;;;17.30;99.90;;;;;;4946072;29;20067;-86
2023/09/07 05:37:09;;;;;;;16.15;14.48;;;17.30;99.90;;;;;;4947557;29;20023;-87
2023/09/07 05:39:35;;;;;;;16.02;14.05;;;17.30;99.90;;;;;;4937971;28;20497;-86
2023/09/07 05:42:01;;;;;;;16.45;14.40;;;17.30;99.90;;;;;;4929356;29;20156;-85
2023/09/07 05:44:26;;;;;;;18.70;15.40;;;17.30;99.90;;;;;;4927807;29;20035;-85
2023/09/07 05:46:52;;;;;;;29.35;20.58;;;17.40;99.90;;;;;;4932879;28;20050;-84
2023/09/07 05:49:18;;;;;;;30.35;22.50;;;17.50;99.90;;;;;;4947520;28;20031;-87
2023/09/07 05:51:43;;;;;;;29.17;21.80;;;17.50;99.90;;;;;;4947248;28;20046;-85
2023/09/07 05:54:09;;;;;;;24.40;18.15;;;17.50;99.90;;;;;;4946770;29;20046;-86
2023/09/07 05:56:35;;;;;;;21.88;18.35;;;17.50;99.90;;;;;;4944392;28;20038;-86
2023/09/07 05:59:00;;;;;;;23.35;17.92;;;17.60;99.90;;;;;;4946160;29;20099;-85
2023/09/07 06:01:26;;;;;;;25.77;17.90;;;17.60;99.90;;;;;;4947797;28;20115;-86
2023/09/07 06:03:51;;;;;;;23.35;18.05;;;17.60;99.90;;;;;;4946851;28;20035;-85
2023/09/07 06:06:17;;;;;;;31.13;22.80;;;17.70;99.90;;;;;;4941984;28;20066;-87
2023/09/07 06:08:42;;;;;;;163.77;110.90;;;17.70;99.90;;;;;;4948550;28;20062;-86
2023/09/07 06:11:08;;;;;;;50.35;34.58;;;17.70;99.90;;;;;;4942563;29;20130;-86
2023/09/07 06:13:33;;;;;;;42.10;29.77;;;17.80;99.90;;;;;;4943924;29;20039;-86
2023/09/07 06:16:00;;;;;;;52.15;35.10;;;17.90;99.90;;;;;;4943614;28;20079;-85
2023/09/07 06:18:26;;;;;;;46.17;30.52;;;17.90;99.90;;;;;;4941713;28;20507;-81
2023/09/07 06:20:51;;;;;;;33.63;23.73;;;17.90;99.90;;;;;;4930760;28;20056;-81
2023/09/07 06:23:17;;;;;;;31.02;20.65;;;18.00;99.90;;;;;;4942534;28;20039;-80
2023/09/07 06:25:42;;;;;;;73.57;51.80;;;18.10;99.90;;;;;;4936760;28;20048;-80
2023/09/07 06:28:08;;;;;;;99.45;58.20;;;18.10;99.90;;;;;;4935131;28;20440;-80
2023/09/07 06:30:34;;;;;;;34.00;21.40;;;18.10;99.90;;;;;;4937652;28;20114;-79
2023/09/07 06:32:59;;;;;;;28.95;19.55;;;18.10;99.90;;;;;;4933811;28;20127;-79
2023/09/07 06:35:25;;;;;;;37.83;19.92;;;18.20;99.90;;;;;;4931860;28;20031;-79
2023/09/07 06:37:50;;;;;;;34.47;17.33;;;18.30;99.90;;;;;;4929458;28;20042;-79
2023/09/07 06:40:17;;;;;;;28.15;18.27;;;18.40;99.90;;;;;;4925581;29;20102;-79
2023/09/07 06:42:43;;;;;;;65.53;45.90;;;18.50;99.90;;;;;;4937708;29;20402;-81
2023/09/07 06:45:09;;;;;;;31.50;22.98;;;18.50;99.90;;;;;;4941713;28;20058;-80
2023/09/07 06:47:35;;;;;;;26.30;20.35;;;18.60;99.90;;;;;;4937373;29;20106;-81
2023/09/07 06:50:02;;;;;;;23.02;18.30;;;18.70;99.90;;;;;;4944276;28;20143;-81
2023/09/07 06:52:27;;;;;;;25.88;18.40;;;18.80;99.90;;;;;;4939642;29;20031;-79
2023/09/07 06:54:53;;;;;;;20.00;12.25;;;18.90;99.90;;;;;;4939989;29;20070;-79
2023/09/07 06:57:19;;;;;;;19.13;13.38;;;19.00;99.90;;;;;;4937904;28;20527;-80
2023/09/07 06:59:45;;;;;;;43.33;33.53;;;19.10;99.90;;;;;;4928573;29;20166;-81
2023/09/07 07:02:10;;;;;;;29.70;19.38;;;19.20;99.90;;;;;;4942999;29;20035;-81
2023/09/07 07:04:36;;;;;;;24.13;16.75;;;19.30;99.90;;;;;;4949385;28;20106;-82
2023/09/07 07:07:04;;;;;;;27.48;15.90;;;19.40;99.90;;;;;;4947367;29;20055;-81
2023/09/07 07:09:30;;;;;;;28.60;20.08;;;19.60;99.90;;;;;;4947035;28;20215;-81
2023/09/07 07:11:56;;;;;;;28.55;21.85;;;19.70;99.90;;;;;;4948500;29;20042;-81
2023/09/07 07:14:22;;;;;;;25.60;19.08;;;19.80;99.90;;;;;;4947164;29;20051;-82
2023/09/07 07:16:47;;;;;;;24.95;18.05;;;19.80;99.90;;;;;;4943694;29;20033;-81
2023/09/07 07:19:13;;;;;;;30.45;22.02;;;19.90;99.90;;;;;;4948006;29;20050;-81
2023/09/07 07:21:38;;;;;;;35.17;23.95;;;20.10;99.90;;;;;;4948646;29;20059;-81
2023/09/07 07:24:07;;;;;;;34.28;22.73;;;20.20;99.90;;;;;;4946904;29;20035;-81
2023/09/07 07:26:32;;;;;;;32.92;23.30;;;20.30;99.90;;;;;;4937214;29;20442;-82
2023/09/07 07:28:58;;;;;;;35.78;24.50;;;20.50;99.90;;;;;;4943143;28;20046;-82
2023/09/07 07:31:24;;;;;;;35.15;25.10;;;20.80;99.90;;;;;;4945406;28;20027;-81
2023/09/07 07:33:49;;;;;;;38.40;26.90;;;21.10;99.90;;;;;;4946953;28;20097;-81
2023/09/07 07:36:15;;;;;;;37.15;26.20;;;21.20;99.90;;;;;;4943374;28;20370;-81
2023/09/07 07:38:41;;;;;;;32.28;25.73;;;21.40;99.90;;;;;;4947048;29;20445;-80
2023/09/07 07:41:07;;;;;;;33.97;24.13;;;21.80;99.90;;;;;;4930844;29;20035;-80
2023/09/07 07:43:33;;;;;;;33.42;24.10;;;22.40;99.90;;;;;;4943470;29;20047;-82
2023/09/07 07:45:59;;;;;;;31.17;22.50;;;23.20;99.90;;;;;;4933267;29;20067;-81
2023/09/07 07:48:25;;;;;;;24.77;18.70;;;24.10;99.90;;;;;;4942647;29;20149;-82
2023/09/07 07:50:50;;;;;;;21.70;15.20;;;26.20;99.90;;;;;;4937756;29;20113;-81
2023/09/07 07:53:16;;;;;;;21.67;14.80;;;28.70;99.90;;;;;;4941701;29;20255;-81
2023/09/07 07:55:42;;;;;;;19.15;14.48;;;30.70;99.90;;;;;;4943411;29;20377;-82
2023/09/07 07:58:10;;;;;;;20.73;13.77;;;32.40;99.90;;;;;;4938918;29;20027;-81
2023/09/07 08:00:37;;;;;;;15.82;11.63;;;34.10;96.40;;;;;;4938505;29;20027;-80
2023/09/07 08:03:05;;;;;;;13.30;11.10;;;35.20;93.70;;;;;;4935142;29;20039;-82
2023/09/07 08:05:32;;;;;;;15.05;12.45;;;36.00;87.50;;;;;;4943090;28;20042;-82
2023/09/07 08:07:57;;;;;;;14.02;10.07;;;36.90;82.10;;;;;;4946263;29;20035;-82
2023/09/07 08:10:23;;;;;;;14.55;12.35;;;37.30;77.30;;;;;;4942760;28;20433;-82
2023/09/07 08:12:53;;;;;;;12.02;8.73;;;37.70;73.10;;;;;;4944655;29;20038;-82
2023/09/07 08:15:21;;;;;;;10.38;9.27;;;37.50;75.60;;;;;;4945683;29;20047;-82
2023/09/07 08:17:47;;;;;;;12.95;9.20;;;37.60;72.10;;;;;;4936946;28;20037;-83
2023/09/07 08:20:13;;;;;;;12.63;10.40;;;37.80;73.60;;;;;;4945744;29;20542;-83
2023/09/07 08:22:41;;;;;;;14.55;9.23;;;38.30;68.00;;;;;;4945894;29;20088;-83
2023/09/07 08:25:08;;;;;;;11.98;8.00;;;38.60;64.10;;;;;;4946834;28;20074;-83
2023/09/07 08:27:34;;;;;;;14.00;10.18;;;38.90;65.90;;;;;;4942932;28;20031;-83
2023/09/07 08:29:59;;;;;;;9.95;8.95;;;39.50;61.20;;;;;;4945907;29;20053;-83
2023/09/07 08:32:25;;;;;;;10.60;9.10;;;39.80;61.80;;;;;;4937108;28;20160;-83
2023/09/07 08:34:56;;;;;;;9.73;8.75;;;40.30;61.00;;;;;;4946792;29;20042;-83
2023/09/07 08:37:22;;;;;;;13.38;10.75;;;40.60;57.10;;;;;;4942107;28;20511;-84
2023/09/07 08:39:47;;;;;;;13.63;11.45;;;40.70;57.90;;;;;;4944569;29;20027;-83
2023/09/07 08:42:13;;;;;;;12.85;10.85;;;40.90;55.20;;;;;;4937486;29;20110;-82
2023/09/07 08:44:42;;;;;;;12.05;10.68;;;40.90;55.10;;;;;;4943688;29;20027;-84
2023/09/07 08:47:08;;;;;;;13.15;10.63;;;40.90;56.60;;;;;;4946450;28;20090;-84
2023/09/07 08:49:33;;;;;;;11.45;10.25;;;40.90;55.80;;;;;;4934691;29;20071;-83
2023/09/07 08:52:02;;;;;;;10.95;9.68;;;41.40;53.40;;;;;;4946241;28;20504;-84
2023/09/07 08:54:29;;;;;;;12.18;10.25;;;41.80;52.30;;;;;;4939082;28;20589;-83
2023/09/07 08:56:56;;;;;;;10.93;8.77;;;42.20;51.30;;;;;;4943638;29;20074;-83
2023/09/07 08:59:22;;;;;;;9.48;8.48;;;42.40;52.70;;;;;;4944472;29;20031;-84
2023/09/07 09:01:48;;;;;;;10.30;7.32;;;42.60;52.40;;;;;;4941234;28;20413;-84
2023/09/07 09:04:14;;;;;;;9.82;7.50;;;42.30;50.40;;;;;;4940742;28;20027;-83
2023/09/07 09:06:39;;;;;;;10.95;8.02;;;42.40;51.50;;;;;;4941619;29;20409;-82
2023/09/07 09:09:05;;;;;;;11.68;9.00;;;42.70;51.50;;;;;;4944449;28;20039;-87
2023/09/07 09:11:31;;;;;;;9.57;6.53;;;43.10;48.30;;;;;;4944843;29;20031;-93
2023/09/07 09:13:56;;;;;;;10.13;8.23;;;43.20;48.90;;;;;;4951440;29;20043;-91
2023/09/07 09:16:22;;;;;;;11.15;8.05;;;43.50;46.90;;;;;;4950374;29;20035;-89
2023/09/07 09:18:52;;;;;;;10.00;7.75;;;43.70;46.20;;;;;;4941507;29;20102;-83
2023/09/07 09:21:20;;;;;;;7.28;6.57;;;43.90;47.50;;;;;;4935815;28;20082;-84
2023/09/07 09:23:47;;;;;;;6.60;5.50;;;44.00;46.80;;;;;;4937183;29;20035;-83
2023/09/07 09:26:13;;;;;;;6.80;4.05;;;44.40;47.40;;;;;;4938635;28;20036;-84
2023/09/07 09:28:39;;;;;;;6.15;4.22;;;44.40;47.30;;;;;;4951968;28;20527;-84
2023/09/07 09:31:04;;;;;;;6.95;4.88;;;44.80;45.90;;;;;;4945746;29;20501;-84
2023/09/07 09:33:31;;;;;;;7.07;5.30;;;44.80;43.30;;;;;;4945553;29;20031;-85
2023/09/07 09:35:57;;;;;;;7.50;3.90;;;44.70;42.80;;;;;;4948060;28;20481;-84
2023/09/07 09:38:26;;;;;;;7.18;4.53;;;44.80;45.80;;;;;;4935177;29;20023;-85
2023/09/07 09:40:52;;;;;;;4.47;2.75;;;44.90;45.70;;;;;;4927733;29;20038;-84
2023/09/07 09:43:20;;;;;;;8.13;7.30;;;45.20;45.90;;;;;;4927792;29;20032;-85
2023/09/07 09:45:49;;;;;;;8.98;7.00;;;45.80;41.10;;;;;;4928961;29;20576;-84
2023/09/07 09:48:15;;;;;;;5.85;4.90;;;46.00;40.20;;;;;;4925468;29;20074;-84
2023/09/07 09:50:43;;;;;;;5.13;3.95;;;46.00;41.10;;;;;;4944949;29;20521;-85
2023/09/07 09:53:15;;;;;;;5.20;3.67;;;46.20;41.10;;;;;;4925804;29;20131;-84
2023/09/07 09:55:41;;;;;;;6.30;3.33;;;46.50;40.70;;;;;;4931064;29;20516;-88
2023/09/07 09:58:06;;;;;;;6.35;4.32;;;46.50;41.30;;;;;;4932329;29;20041;-82
2023/09/07 10:00:37;;;;;;;6.57;4.18;;;46.30;39.50;;;;;;4930980;29;20687;-83
2023/09/07 10:03:28;;;;;;;4.13;2.80;;;46.20;39.20;;;;;;4934802;29;20042;-85
2023/09/07 10:05:54;;;;;;;6.82;3.60;;;46.10;42.30;;;;;;4937195;29;20055;-86
2023/09/07 10:08:22;;;;;;;5.28;2.97;;;46.20;42.40;;;;;;4938064;29;20035;-83
2023/09/07 10:10:49;;;;;;;5.85;3.33;;;46.50;42.80;;;;;;4937800;29;20573;-84
2023/09/07 10:13:16;;;;;;;7.53;4.40;;;46.50;40.10;;;;;;4942651;29;20058;-84
2023/09/07 10:15:42;;;;;;;5.88;4.40;;;46.70;39.70;;;;;;4935561;29;20035;-84
2023/09/07 10:18:16;;;;;;;3.50;3.17;;;46.70;37.40;;;;;;4936869;29;20373;-84
2023/09/07 10:20:57;;;;;;;8.60;3.00;;;46.50;37.70;;;;;;4929781;29;20129;-83
2023/09/07 10:23:44;;;;;;;5.38;2.65;;;45.80;38.20;;;;;;4931427;28;20035;-84
2023/09/07 10:26:12;;;;;;;4.35;2.45;;;45.70;38.40;;;;;;4931097;28;20180;-84
2023/09/07 10:28:38;;;;;;;3.60;2.28;;;45.50;37.00;;;;;;4948623;28;20154;-83
2023/09/07 10:31:05;;;;;;;4.03;2.10;;;45.30;39.20;;;;;;4938331;28;20086;-84
2023/09/07 10:33:35;;;;;;;4.50;2.08;;;45.70;37.90;;;;;;4937336;28;20043;-84
2023/09/07 10:36:02;;;;;;;3.33;1.80;;;46.20;37.80;;;;;;4940885;28;20035;-84
2023/09/07 10:38:28;;;;;;;2.85;1.65;;;46.20;38.80;;;;;;4944155;28;20166;-84
2023/09/07 10:40:58;;;;;;;2.13;1.80;;;46.80;37.30;;;;;;4937964;29;20131;-83
2023/09/07 10:43:25;;;;;;;3.40;2.00;;;47.30;36.20;;;;;;4955244;28;20492;-84
2023/09/07 10:45:50;;;;;;;3.53;2.40;;;47.60;37.30;;;;;;4945486;28;20070;-84
2023/09/07 10:48:17;;;;;;;2.70;2.22;;;47.50;35.50;;;;;;4949431;29;20465;-83
2023/09/07 10:50:44;;;;;;;2.45;1.77;;;47.00;35.00;;;;;;4935629;28;20500;-84
2023/09/07 10:53:11;;;;;;;4.40;2.38;;;46.40;35.40;;;;;;4947152;29;20031;-84
2023/09/07 10:55:40;;;;;;;3.40;2.33;;;46.50;35.90;;;;;;4941175;28;20033;-82
2023/09/07 10:58:06;;;;;;;2.85;2.33;;;46.50;35.60;;;;;;4944791;29;20023;-83
2023/09/07 11:00:32;;;;;;;4.25;2.10;;;45.90;36.90;;;;;;4947904;28;20150;-83
2023/09/07 11:02:57;;;;;;;2.50;2.00;;;45.20;38.10;;;;;;4947750;29;20031;-84
2023/09/07 11:05:23;;;;;;;3.58;2.63;;;45.40;36.90;;;;;;4942229;28;20036;-84
2023/09/07 11:07:49;;;;;;;5.15;2.65;;;45.50;37.50;;;;;;4944102;28;20106;-83
2023/09/07 11:10:15;;;;;;;4.25;2.50;;;45.70;37.40;;;;;;4944398;28;20058;-83
2023/09/07 11:12:41;;;;;;;3.95;2.30;;;45.90;37.50;;;;;;4948659;29;20027;-85
2023/09/07 11:15:10;;;;;;;4.57;2.03;;;46.20;36.50;;;;;;4950840;28;20058;-84
2023/09/07 11:17:42;;;;;;;3.38;2.47;;;46.30;37.40;;;;;;4947134;29;20834;-84
2023/09/07 11:20:09;;;;;;;3.47;2.25;;;46.30;36.40;;;;;;4958375;28;20181;-84
2023/09/07 11:22:38;;;;;;;6.13;2.10;;;45.80;36.40;;;;;;4952511;28;20495;-84
2023/09/07 11:25:08;;;;;;;3.72;2.20;;;44.60;38.10;;;;;;4965730;28;20560;-85
2023/09/07 11:27:33;;;;;;;5.45;2.58;;;43.30;37.80;;;;;;4945143;29;20039;-85
2023/09/07 11:30:03;;;;;;;5.45;2.58;;;41.60;41.40;;;;;;4948821;29;20050;-85
2023/09/07 11:32:36;;;;;;;5.15;2.70;;;39.80;41.40;;;;;;4946850;28;20031;-85
2023/09/07 11:35:01;;;;;;;3.95;2.80;;;38.10;44.70;;;;;;4951949;28;20042;-84
2023/09/07 11:37:27;;;;;;;6.65;3.42;;;36.90;45.30;;;;;;4952850;28;20692;-85
2023/09/07 11:39:53;;;;;;;3.83;2.60;;;36.10;48.40;;;;;;4946812;29;20035;-85
2023/09/07 11:42:18;;;;;;;5.57;2.78;;;35.80;49.80;;;;;;4949297;29;20490;-84
2023/09/07 11:44:44;;;;;;;6.10;2.65;;;35.50;50.10;;;;;;4949264;28;20023;-83
2023/09/07 11:47:09;;;;;;;5.43;2.92;;;35.40;52.90;;;;;;4947728;29;20110;-84
2023/09/07 11:49:35;;;;;;;7.28;3.00;;;35.70;52.80;;;;;;4947181;29;20414;-84
2023/09/07 11:52:01;;;;;;;6.57;2.92;;;35.60;51.40;;;;;;4947959;29;20095;-85
2023/09/07 11:54:27;;;;;;;3.85;2.60;;;35.80;52.20;;;;;;4930480;29;20036;-84
2023/09/07 11:56:53;;;;;;;3.75;2.60;;;35.90;55.90;;;;;;4940153;28;20031;-85
2023/09/07 11:59:18;;;;;;;5.25;3.22;;;35.80;53.10;;;;;;4943789;28;20041;-85
2023/09/07 12:01:44;;;;;;;5.70;3.58;;;35.30;49.90;;;;;;4946395;29;20045;-85
2023/09/07 12:04:10;;;;;;;4.55;3.08;;;35.00;51.20;;;;;;4942311;28;20043;-84
2023/09/07 12:06:36;;;;;;;4.03;3.17;;;34.90;52.90;;;;;;4948659;28;20034;-84
2023/09/07 12:09:09;;;;;;;4.72;2.97;;;34.90;53.40;;;;;;4957528;28;20049;-85
2023/09/07 12:11:35;;;;;;;3.63;2.70;;;35.00;55.20;;;;;;4947112;29;20027;-84
2023/09/07 12:14:01;;;;;;;4.85;2.95;;;35.00;54.50;;;;;;4949187;29;20141;-84
2023/09/07 12:16:27;;;;;;;5.85;3.15;;;35.10;55.20;;;;;;4947306;29;20057;-84
2023/09/07 12:18:53;;;;;;;7.10;3.45;;;35.20;57.50;;;;;;4944753;29;20054;-84
2023/09/07 12:21:19;;;;;;;4.13;2.83;;;35.30;58.50;;;;;;4947444;28;20059;-85
2023/09/07 12:23:45;;;;;;;4.38;2.63;;;35.00;53.60;;;;;;4947602;29;20043;-85
2023/09/07 12:26:13;;;;;;;4.53;2.97;;;35.00;56.80;;;;;;4944065;29;20079;-84
2023/09/07 12:28:39;;;;;;;4.55;2.92;;;35.20;57.50;;;;;;4929643;29;20118;-85